createdAt,value
2023-01-30T00:00:31.284Z,25.70
2023-01-30T00:01:31.259Z,26.50
2023-01-30T00:02:31.260Z,25.90
2023-01-30T00:03:31.254Z,25.90
2023-01-30T00:04:31.249Z,26.60
2023-01-30T00:05:31.224Z,25.70
2023-01-30T00:06:31.224Z,27.50
2023-01-30T00:07:31.196Z,26.70
2023-01-30T00:08:31.234Z,26.20
2023-01-30T00:09:31.170Z,25.50
2023-01-30T00:10:31.204Z,26.30
2023-01-30T00:11:31.159Z,26.20
2023-01-30T00:12:31.163Z,25.50
2023-01-30T00:13:31.127Z,25.10
2023-01-30T00:14:31.159Z,25.40
2023-01-30T00:15:31.109Z,26.20
2023-01-30T00:16:31.192Z,25.40
2023-01-30T00:17:31.092Z,25.80
2023-01-30T00:18:31.110Z,26.30
2023-01-30T00:19:31.062Z,26.20
2023-01-30T00:20:31.087Z,26.00
2023-01-30T00:21:31.081Z,26.20
2023-01-30T00:22:31.062Z,27.00
2023-01-30T00:23:31.022Z,26.90
2023-01-30T00:24:31.201Z,26.70
2023-01-30T00:25:31.121Z,25.90
2023-01-30T00:26:31.064Z,27.10
2023-01-30T00:27:30.980Z,27.30
2023-01-30T00:28:30.990Z,25.30
2023-01-30T00:29:30.972Z,26.40
2023-01-30T00:30:31.037Z,26.90
2023-01-30T00:31:31.110Z,25.70
2023-01-30T00:32:30.963Z,27.10
2023-01-30T00:33:30.922Z,27.10
2023-01-30T00:34:30.930Z,26.90
2023-01-30T00:35:30.903Z,26.90
2023-01-30T00:36:30.940Z,27.10
2023-01-30T00:37:30.883Z,27.10
2023-01-30T00:38:30.888Z,27.00
2023-01-30T00:39:30.856Z,26.70
2023-01-30T00:40:30.871Z,26.90
2023-01-30T00:41:30.834Z,27.70
2023-01-30T00:42:30.911Z,26.90
2023-01-30T00:43:30.817Z,27.50
2023-01-30T00:44:30.840Z,28.20
2023-01-30T00:45:30.851Z,26.80
2023-01-30T00:46:30.826Z,27.80
2023-01-30T00:47:30.771Z,26.90
2023-01-30T00:48:30.822Z,28.00
2023-01-30T00:49:31.903Z,27.80
2023-01-30T00:50:30.762Z,28.00
2023-01-30T00:51:30.730Z,28.40
2023-01-30T00:52:30.753Z,28.80
2023-01-30T00:53:30.711Z,28.50
2023-01-30T00:54:30.744Z,27.80
2023-01-30T00:55:30.689Z,29.30
2023-01-30T00:56:30.703Z,28.10
2023-01-30T00:57:30.669Z,29.40
2023-01-30T00:58:30.713Z,29.10
2023-01-30T00:59:30.649Z,28.40
2023-01-30T01:00:30.678Z,28.70
2023-01-30T01:01:30.646Z,28.00
2023-01-30T01:02:30.643Z,28.50
2023-01-30T01:03:30.607Z,28.20
2023-01-30T01:04:30.630Z,29.30
2023-01-30T01:05:30.589Z,28.40
2023-01-30T01:06:30.622Z,28.10
2023-01-30T01:07:30.575Z,28.00
2023-01-30T01:08:30.581Z,27.80
2023-01-30T01:09:30.546Z,28.40
2023-01-30T01:10:30.571Z,27.40
2023-01-30T01:11:30.536Z,27.30
2023-01-30T01:12:30.563Z,28.10
2023-01-30T01:13:30.507Z,28.60
2023-01-30T01:14:30.516Z,27.90
2023-01-30T01:15:30.497Z,27.90
2023-01-30T01:16:30.570Z,26.40
2023-01-30T01:17:30.466Z,28.10
2023-01-30T01:18:30.513Z,28.50
2023-01-30T01:19:30.445Z,26.40
2023-01-30T01:20:30.487Z,27.20
2023-01-30T01:21:30.421Z,27.40
2023-01-30T01:22:30.434Z,28.80
2023-01-30T01:23:30.406Z,27.10
2023-01-30T01:24:30.439Z,28.50
2023-01-30T01:25:30.393Z,27.70
2023-01-30T01:26:30.450Z,26.60
2023-01-30T01:27:30.368Z,28.10
2023-01-30T01:28:30.385Z,28.30
2023-01-30T01:29:30.339Z,28.10
2023-01-30T01:30:30.375Z,28.00
2023-01-30T01:31:30.426Z,26.40
2023-01-30T01:32:30.334Z,27.60
2023-01-30T01:33:30.298Z,26.90
2023-01-30T01:34:30.327Z,26.80
2023-01-30T01:35:30.291Z,26.20
2023-01-30T01:37:30.263Z,27.30
2023-01-30T01:38:30.275Z,26.30
2023-01-30T01:39:30.241Z,26.70
2023-01-30T01:40:30.268Z,26.00
2023-01-30T01:41:30.224Z,26.40
2023-01-30T01:42:30.267Z,26.50
2023-01-30T01:43:30.194Z,26.70
2023-01-30T01:44:30.211Z,27.50
2023-01-30T01:45:30.179Z,26.50
2023-01-30T01:46:30.188Z,27.80
2023-01-30T01:47:30.171Z,27.30
2023-01-30T01:48:30.190Z,25.90
2023-01-30T01:49:30.131Z,28.10
2023-01-30T01:50:30.153Z,27.70
2023-01-30T01:51:30.117Z,27.30
2023-01-30T01:52:30.130Z,27.10
2023-01-30T01:53:30.093Z,26.70
2023-01-30T01:54:30.139Z,26.90
2023-01-30T01:55:30.071Z,26.10
2023-01-30T01:56:30.091Z,26.40
2023-01-30T01:57:30.055Z,27.20
2023-01-30T01:58:30.063Z,26.70
2023-01-30T01:59:30.040Z,26.80
2023-01-30T02:00:30.060Z,27.50
2023-01-30T02:01:30.089Z,27.00
2023-01-30T02:02:30.172Z,27.60
2023-01-30T02:03:29.989Z,27.30
2023-01-30T02:04:29.998Z,26.80
2023-01-30T02:05:29.973Z,26.80
2023-01-30T02:06:29.997Z,27.30
2023-01-30T02:07:29.964Z,26.40
2023-01-30T02:08:29.958Z,28.10
2023-01-30T02:09:29.926Z,25.10
2023-01-30T02:10:29.940Z,28.10
2023-01-30T02:11:29.902Z,27.70
2023-01-30T02:12:29.938Z,28.90
2023-01-30T02:13:29.883Z,27.40
2023-01-30T02:14:29.899Z,26.00
2023-01-30T02:15:29.877Z,29.60
2023-01-30T02:16:29.881Z,29.80
2023-01-30T02:17:29.884Z,29.40
2023-01-30T02:18:29.885Z,30.30
2023-01-30T02:19:29.826Z,30.70
2023-01-30T02:20:29.830Z,28.30
2023-01-30T02:21:29.804Z,31.00
2023-01-30T02:22:29.817Z,30.80
2023-01-30T02:23:29.797Z,32.70
2023-01-30T02:24:29.825Z,30.80
2023-01-30T02:25:29.768Z,32.90
2023-01-30T02:26:29.858Z,32.90
2023-01-30T02:27:29.754Z,28.10
2023-01-30T02:28:29.753Z,32.40
2023-01-30T02:29:29.723Z,30.20
2023-01-30T02:30:29.894Z,30.80
2023-01-30T02:31:29.886Z,28.50
2023-01-30T02:32:29.692Z,28.90
2023-01-30T02:33:29.704Z,28.20
2023-01-30T02:34:29.663Z,28.00
2023-01-30T02:35:29.680Z,28.60
2023-01-30T02:36:29.662Z,27.20
2023-01-30T02:37:29.698Z,28.80
2023-01-30T02:38:29.642Z,26.80
2023-01-30T02:39:29.647Z,26.70
2023-01-30T02:40:29.622Z,28.40
2023-01-30T02:41:29.629Z,26.70
2023-01-30T02:42:29.625Z,26.50
2023-01-30T02:43:29.606Z,25.70
2023-01-30T02:44:29.567Z,24.20
2023-01-30T02:45:29.573Z,26.00
2023-01-30T02:46:29.543Z,25.00
2023-01-30T02:47:29.560Z,24.40
2023-01-30T02:48:29.540Z,24.90
2023-01-30T02:49:29.539Z,25.00
2023-01-30T02:50:29.506Z,24.60
2023-01-30T02:51:29.516Z,24.90
2023-01-30T02:52:29.483Z,24.20
2023-01-30T02:53:29.495Z,24.00
2023-01-30T02:54:29.504Z,24.00
2023-01-30T02:55:29.471Z,24.10
2023-01-30T02:56:29.441Z,25.30
2023-01-30T02:57:29.470Z,25.50
2023-01-30T02:58:29.419Z,25.80
2023-01-30T02:59:29.437Z,24.10
2023-01-30T03:00:29.436Z,25.90
2023-01-30T03:01:29.464Z,24.50
2023-01-30T03:02:29.416Z,25.90
2023-01-30T03:03:29.393Z,24.50
2023-01-30T03:04:29.372Z,25.70
2023-01-30T03:05:29.370Z,26.50
2023-01-30T03:06:29.350Z,25.10
2023-01-30T03:07:29.349Z,25.30
2023-01-30T03:08:29.313Z,26.90
2023-01-30T03:09:29.349Z,26.00
2023-01-30T03:10:29.293Z,26.10
2023-01-30T03:11:29.302Z,26.60
2023-01-30T03:12:29.297Z,24.20
2023-01-30T03:13:29.294Z,26.80
2023-01-30T03:14:29.258Z,26.90
2023-01-30T03:15:29.281Z,26.70
2023-01-30T03:16:29.236Z,26.80
2023-01-30T03:17:29.243Z,27.60
2023-01-30T03:18:29.245Z,26.70
2023-01-30T03:19:29.224Z,27.20
2023-01-30T03:20:29.189Z,27.10
2023-01-30T03:21:29.203Z,27.40
2023-01-30T03:22:29.168Z,26.50
2023-01-30T03:23:29.184Z,28.10
2023-01-30T03:24:29.171Z,28.10
2023-01-30T03:25:29.229Z,28.20
2023-01-30T03:26:29.152Z,25.90
2023-01-30T03:27:29.154Z,27.50
2023-01-30T03:28:29.115Z,27.60
2023-01-30T03:29:29.122Z,25.50
2023-01-30T03:30:29.107Z,29.20
2023-01-30T03:31:29.236Z,26.90
2023-01-30T03:32:29.073Z,27.30
2023-01-30T03:33:29.075Z,28.30
2023-01-30T03:34:29.043Z,27.10
2023-01-30T03:35:29.070Z,28.10
2023-01-30T03:36:29.056Z,27.30
2023-01-30T03:37:29.035Z,28.40
2023-01-30T03:38:29.041Z,27.20
2023-01-30T03:39:29.020Z,26.20
2023-01-30T03:40:28.996Z,27.90
2023-01-30T03:41:29.013Z,27.60
2023-01-30T03:42:28.991Z,27.80
2023-01-30T03:43:28.976Z,28.20
2023-01-30T03:44:28.955Z,27.90
2023-01-30T03:45:28.956Z,28.60
2023-01-30T03:46:28.970Z,30.60
2023-01-30T03:47:28.938Z,30.90
2023-01-30T03:48:28.923Z,29.10
2023-01-30T03:49:28.921Z,30.50
2023-01-30T03:50:28.874Z,28.50
2023-01-30T03:51:28.890Z,30.90
2023-01-30T03:52:28.867Z,29.80
2023-01-30T03:53:28.869Z,36.90
2023-01-30T03:54:28.872Z,35.90
2023-01-30T03:55:28.849Z,41.20
2023-01-30T03:56:28.827Z,41.20
2023-01-30T03:57:28.843Z,39.10
2023-01-30T03:58:28.796Z,40.70
2023-01-30T03:59:28.818Z,39.90
2023-01-30T04:00:28.804Z,40.20
2023-01-30T04:01:28.828Z,39.80
2023-01-30T04:02:28.801Z,40.00
2023-01-30T04:03:28.776Z,39.70
2023-01-30T04:04:28.734Z,41.40
2023-01-30T04:05:28.744Z,40.50
2023-01-30T04:06:28.753Z,40.70
2023-01-30T04:07:28.725Z,40.50
2023-01-30T04:08:28.688Z,39.00
2023-01-30T04:09:28.699Z,34.60
2023-01-30T04:10:28.678Z,41.60
2023-01-30T04:11:28.687Z,41.00
2023-01-30T04:12:28.662Z,40.10
2023-01-30T04:13:28.666Z,41.00
2023-01-30T04:14:28.625Z,41.20
2023-01-30T04:15:28.638Z,39.20
2023-01-30T04:16:28.632Z,40.10
2023-01-30T04:17:28.621Z,40.20
2023-01-30T04:18:28.597Z,41.40
2023-01-30T04:19:28.613Z,43.60
2023-01-30T04:20:28.585Z,39.40
2023-01-30T04:21:28.578Z,37.20
2023-01-30T04:22:28.548Z,37.70
2023-01-30T04:23:28.566Z,38.20
2023-01-30T04:24:28.555Z,33.40
2023-01-30T04:25:28.534Z,38.10
2023-01-30T04:26:28.566Z,39.40
2023-01-30T04:27:28.521Z,41.90
2023-01-30T04:28:28.481Z,46.90
2023-01-30T04:29:28.501Z,45.50
2023-01-30T04:30:28.536Z,46.70
2023-01-30T04:31:28.494Z,48.20
2023-01-30T04:32:28.451Z,46.60
2023-01-30T04:33:28.455Z,53.50
2023-01-30T04:34:28.423Z,53.70
2023-01-30T04:35:28.438Z,50.00
2023-01-30T04:36:28.419Z,48.90
2023-01-30T04:37:28.414Z,50.30
2023-01-30T04:38:28.378Z,46.30
2023-01-30T04:39:28.389Z,51.00
2023-01-30T04:40:28.378Z,47.50
2023-01-30T04:41:28.352Z,47.60
2023-01-30T04:42:28.503Z,48.40
2023-01-30T04:43:28.332Z,52.30
2023-01-30T04:44:28.353Z,45.10
2023-01-30T04:45:29.328Z,51.10
2023-01-30T04:46:28.328Z,50.80
2023-01-30T04:47:28.317Z,46.40
2023-01-30T04:48:28.349Z,54.00
2023-01-30T04:49:28.262Z,44.90
2023-01-30T04:50:28.281Z,49.20
2023-01-30T04:51:28.252Z,54.90
2023-01-30T04:52:28.262Z,48.00
2023-01-30T04:53:28.231Z,48.50
2023-01-30T04:54:28.262Z,43.10
2023-01-30T04:55:28.200Z,44.70
2023-01-30T04:56:28.216Z,47.00
2023-01-30T04:57:28.186Z,51.80
2023-01-30T04:58:28.208Z,51.10
2023-01-30T04:59:28.161Z,48.10
2023-01-30T05:00:28.227Z,46.90
2023-01-30T05:01:28.145Z,49.30
2023-01-30T05:02:28.150Z,43.30
2023-01-30T05:03:28.135Z,44.80
2023-01-30T05:04:28.140Z,47.40
2023-01-30T05:05:28.099Z,49.20
2023-01-30T05:06:28.129Z,37.80
2023-01-30T05:07:28.080Z,40.60
2023-01-30T05:08:28.095Z,36.70
2023-01-30T05:09:28.055Z,38.90
2023-01-30T05:10:28.180Z,46.20
2023-01-30T05:11:28.044Z,46.20
2023-01-30T05:12:28.086Z,45.10
2023-01-30T05:13:28.012Z,45.40
2023-01-30T05:14:28.028Z,39.80
2023-01-30T05:15:27.998Z,49.80
2023-01-30T05:16:28.012Z,50.70
2023-01-30T05:17:28.004Z,42.40
2023-01-30T05:18:28.007Z,49.90
2023-01-30T05:19:27.963Z,45.70
2023-01-30T05:20:27.974Z,50.90
2023-01-30T05:21:28.027Z,42.50
2023-01-30T05:22:27.943Z,47.70
2023-01-30T05:23:27.919Z,40.00
2023-01-30T05:24:27.944Z,48.40
2023-01-30T05:25:27.905Z,42.60
2023-01-30T05:26:27.977Z,44.60
2023-01-30T05:27:27.871Z,40.70
2023-01-30T05:28:27.891Z,42.60
2023-01-30T05:29:27.852Z,39.50
2023-01-30T05:30:27.896Z,46.60
2023-01-30T05:31:27.861Z,44.50
2023-01-30T05:32:27.843Z,43.90
2023-01-30T05:33:27.808Z,44.30
2023-01-30T05:34:27.818Z,47.90
2023-01-30T05:35:27.812Z,45.40
2023-01-30T05:36:27.822Z,42.60
2023-01-30T05:37:27.766Z,41.80
2023-01-30T05:38:27.776Z,42.70
2023-01-30T05:39:27.750Z,45.50
2023-01-30T05:40:27.755Z,41.50
2023-01-30T05:41:27.720Z,44.70
2023-01-30T05:42:27.751Z,41.20
2023-01-30T05:43:27.701Z,38.40
2023-01-30T05:44:27.725Z,37.00
2023-01-30T05:45:27.687Z,36.50
2023-01-30T05:46:27.715Z,36.00
2023-01-30T05:47:27.659Z,38.60
2023-01-30T05:48:27.741Z,41.80
2023-01-30T05:49:27.887Z,41.50
2023-01-30T05:50:27.659Z,43.20
2023-01-30T05:51:27.641Z,41.40
2023-01-30T05:52:27.628Z,44.70
2023-01-30T05:53:27.613Z,35.60
2023-01-30T05:54:27.628Z,42.30
2023-01-30T05:55:27.580Z,38.80
2023-01-30T05:56:27.618Z,38.00
2023-01-30T05:57:27.559Z,35.20
2023-01-30T05:58:27.577Z,39.30
2023-01-30T05:59:27.534Z,40.60
2023-01-30T06:00:27.570Z,39.10
2023-01-30T06:01:27.513Z,42.90
2023-01-30T06:02:27.560Z,40.70
2023-01-30T06:03:27.516Z,41.20
2023-01-30T06:04:27.510Z,45.80
2023-01-30T06:05:27.475Z,39.50
2023-01-30T06:06:27.505Z,39.70
2023-01-30T06:07:27.458Z,39.20
2023-01-30T06:08:27.466Z,39.80
2023-01-30T06:09:27.432Z,38.70
2023-01-30T06:10:27.446Z,40.80
2023-01-30T06:11:27.412Z,35.60
2023-01-30T06:12:27.441Z,37.20
2023-01-30T06:13:27.390Z,41.30
2023-01-30T06:14:27.402Z,41.10
2023-01-30T06:15:27.366Z,39.20
2023-01-30T06:16:27.472Z,40.10
2023-01-30T06:17:29.104Z,40.90
2023-01-30T06:18:27.379Z,35.80
2023-01-30T06:19:27.334Z,38.50
2023-01-30T06:20:27.344Z,40.90
2023-01-30T06:21:27.312Z,36.30
2023-01-30T06:22:27.323Z,40.50
2023-01-30T06:23:27.290Z,36.90
2023-01-30T06:24:27.313Z,35.40
2023-01-30T06:25:27.280Z,42.40
2023-01-30T06:26:27.314Z,40.30
2023-01-30T06:27:27.262Z,41.40
2023-01-30T06:28:27.286Z,39.90
2023-01-30T06:29:27.229Z,39.70
2023-01-30T06:30:27.293Z,39.90
2023-01-30T06:31:27.288Z,39.80
2023-01-30T06:32:27.220Z,41.20
2023-01-30T06:33:27.191Z,36.60
2023-01-30T06:34:27.207Z,42.20
2023-01-30T06:35:27.167Z,41.40
2023-01-30T06:36:27.198Z,44.70
2023-01-30T06:37:27.162Z,41.70
2023-01-30T06:38:27.157Z,44.30
2023-01-30T06:39:27.135Z,39.60
2023-01-30T06:40:27.149Z,42.60
2023-01-30T06:41:27.103Z,40.90
2023-01-30T06:42:27.135Z,45.60
2023-01-30T06:43:27.081Z,44.70
2023-01-30T06:44:27.103Z,45.60
2023-01-30T06:45:27.061Z,42.10
2023-01-30T06:46:27.051Z,39.50
2023-01-30T06:47:27.077Z,44.10
2023-01-30T06:48:27.045Z,43.60
2023-01-30T06:49:27.036Z,44.10
2023-01-30T06:50:27.019Z,45.30
2023-01-30T06:51:27.019Z,46.10
2023-01-30T06:52:26.999Z,39.20
2023-01-30T06:53:26.997Z,43.80
2023-01-30T06:54:27.005Z,42.10
2023-01-30T06:55:26.995Z,43.80
2023-01-30T06:56:26.951Z,49.60
2023-01-30T06:57:26.955Z,47.20
2023-01-30T06:58:26.934Z,46.90
2023-01-30T06:59:26.944Z,52.40
2023-01-30T07:00:26.929Z,50.30
2023-01-30T07:01:28.876Z,47.30
2023-01-30T07:02:26.880Z,53.50
2023-01-30T07:03:26.914Z,50.00
2023-01-30T07:04:26.949Z,51.30
2023-01-30T07:05:26.871Z,56.50
2023-01-30T07:06:26.872Z,52.50
2023-01-30T07:07:26.855Z,52.80
2023-01-30T07:08:26.847Z,51.70
2023-01-30T07:09:26.831Z,54.70
2023-01-30T07:10:26.801Z,50.70
2023-01-30T07:11:26.811Z,56.30
2023-01-30T07:12:26.793Z,52.30
2023-01-30T07:13:26.789Z,48.40
2023-01-30T07:14:26.757Z,52.30
2023-01-30T07:15:26.793Z,49.70
2023-01-30T07:16:26.758Z,57.60
2023-01-30T07:17:26.748Z,51.60
2023-01-30T07:18:26.731Z,52.20
2023-01-30T07:19:26.727Z,49.60
2023-01-30T07:20:26.695Z,50.90
2023-01-30T07:21:26.704Z,49.80
2023-01-30T07:22:26.677Z,58.50
2023-01-30T07:23:26.685Z,55.00
2023-01-30T07:24:26.679Z,48.20
2023-01-30T07:25:26.663Z,53.80
2023-01-30T07:26:26.690Z,47.00
2023-01-30T07:27:26.644Z,45.30
2023-01-30T07:28:26.612Z,51.70
2023-01-30T07:29:26.627Z,50.00
2023-01-30T07:30:26.661Z,46.70
2023-01-30T07:31:26.620Z,46.80
2023-01-30T07:32:26.568Z,42.90
2023-01-30T07:33:26.599Z,53.70
2023-01-30T07:34:26.551Z,51.70
2023-01-30T07:35:26.587Z,47.70
2023-01-30T07:36:26.550Z,49.30
2023-01-30T07:37:26.537Z,49.20
2023-01-30T07:38:26.537Z,45.80
2023-01-30T07:39:26.519Z,50.30
2023-01-30T07:40:26.485Z,45.50
2023-01-30T07:41:26.499Z,48.40
2023-01-30T07:42:26.503Z,51.10
2023-01-30T07:43:26.477Z,47.20
2023-01-30T07:44:26.447Z,46.00
2023-01-30T07:45:26.460Z,44.20
2023-01-30T07:46:26.424Z,49.70
2023-01-30T07:47:26.443Z,47.60
2023-01-30T07:48:26.478Z,50.10
2023-01-30T07:49:26.412Z,50.80
2023-01-30T07:50:26.381Z,49.00
2023-01-30T07:51:26.403Z,40.10
2023-01-30T07:52:26.367Z,42.60
2023-01-30T07:53:26.379Z,19.50
2023-01-30T07:54:26.357Z,26.80
2023-01-30T07:55:26.350Z,32.80
2023-01-30T07:56:26.316Z,17.50
2023-01-30T07:57:26.329Z,11.50
2023-01-30T07:58:26.300Z,15.90
2023-01-30T07:59:26.307Z,17.00
2023-01-30T08:00:26.316Z,15.80
2023-01-30T08:01:26.407Z,17.90
2023-01-30T08:02:26.255Z,17.40
2023-01-30T08:03:26.273Z,16.80
2023-01-30T08:04:26.283Z,18.40
2023-01-30T08:05:26.250Z,17.50
2023-01-30T08:06:26.325Z,17.70
2023-01-30T08:07:26.227Z,19.40
2023-01-30T08:08:26.191Z,19.40
2023-01-30T08:09:26.208Z,18.50
2023-01-30T08:10:26.176Z,18.90
2023-01-30T08:11:26.184Z,16.90
2023-01-30T08:12:26.177Z,20.60
2023-01-30T08:13:26.164Z,21.70
2023-01-30T08:14:26.128Z,21.30
2023-01-30T08:15:26.149Z,23.70
2023-01-30T08:16:26.135Z,25.10
2023-01-30T08:17:26.137Z,25.80
2023-01-30T08:18:26.118Z,25.30
2023-01-30T08:19:26.101Z,20.50
2023-01-30T08:20:26.074Z,23.40
2023-01-30T08:21:26.093Z,18.80
2023-01-30T08:22:26.046Z,21.50
2023-01-30T08:23:26.059Z,12.30
2023-01-30T08:24:26.041Z,12.90
2023-01-30T08:25:26.046Z,9.00
2023-01-30T08:26:26.017Z,10.30
2023-01-30T08:27:26.018Z,10.10
2023-01-30T08:28:25.992Z,11.80
2023-01-30T08:29:25.997Z,11.70
2023-01-30T08:30:26.033Z,14.30
2023-01-30T08:31:26.023Z,14.50
2023-01-30T08:32:25.943Z,14.00
2023-01-30T08:33:25.956Z,14.40
2023-01-30T08:34:25.922Z,17.00
2023-01-30T08:35:25.938Z,16.30
2023-01-30T08:36:25.927Z,17.00
2023-01-30T08:37:25.916Z,14.10
2023-01-30T08:38:25.879Z,16.20
2023-01-30T08:39:25.893Z,15.10
2023-01-30T08:40:25.860Z,14.90
2023-01-30T08:41:25.875Z,16.40
2023-01-30T08:42:25.871Z,17.30
2023-01-30T08:43:25.860Z,16.80
2023-01-30T08:44:25.820Z,14.80
2023-01-30T08:45:25.841Z,14.40
2023-01-30T08:46:25.829Z,14.70
2023-01-30T08:47:25.810Z,12.30
2023-01-30T08:48:28.186Z,14.30
2023-01-30T08:49:25.798Z,12.80
2023-01-30T08:50:25.754Z,12.40
2023-01-30T08:51:25.769Z,13.60
2023-01-30T08:52:25.736Z,11.10
2023-01-30T08:53:25.745Z,12.00
2023-01-30T08:54:25.735Z,12.20
2023-01-30T08:55:25.729Z,10.60
2023-01-30T08:56:25.693Z,9.10
2023-01-30T08:57:25.708Z,10.60
2023-01-30T08:58:25.676Z,9.40
2023-01-30T08:59:25.685Z,8.50
2023-01-30T09:00:25.700Z,8.90
2023-01-30T09:01:25.924Z,11.00
2023-01-30T09:02:25.661Z,7.10
2023-01-30T09:03:25.642Z,8.30
2023-01-30T09:04:25.606Z,8.70
2023-01-30T09:05:25.624Z,7.90
2023-01-30T09:06:26.335Z,7.50
2023-01-30T09:07:25.605Z,7.20
2023-01-30T09:08:25.577Z,6.30
2023-01-30T09:09:25.581Z,6.50
2023-01-30T09:10:25.599Z,7.00
2023-01-30T09:11:25.556Z,7.30
2023-01-30T09:12:25.563Z,7.10
2023-01-30T09:13:25.541Z,6.80
2023-01-30T09:14:25.519Z,6.90
2023-01-30T09:15:25.520Z,7.00
2023-01-30T09:16:25.481Z,6.00
2023-01-30T09:17:25.504Z,6.00
2023-01-30T09:18:25.494Z,5.80
2023-01-30T09:19:25.476Z,5.40
2023-01-30T09:20:25.512Z,6.10
2023-01-30T09:21:25.454Z,5.30
2023-01-30T09:22:26.091Z,6.40
2023-01-30T09:23:25.448Z,6.60
2023-01-30T09:24:25.426Z,6.20
2023-01-30T09:25:25.421Z,6.50
2023-01-30T09:26:25.431Z,5.80
2023-01-30T09:27:25.394Z,5.90
2023-01-30T09:28:25.358Z,5.90
2023-01-30T09:29:25.367Z,5.30
2023-01-30T09:30:25.390Z,4.90
2023-01-30T09:31:25.502Z,5.20
2023-01-30T09:32:25.329Z,5.60
2023-01-30T09:33:25.323Z,5.40
2023-01-30T09:34:25.326Z,4.80
2023-01-30T09:35:25.308Z,4.50
2023-01-30T09:36:25.300Z,4.60
2023-01-30T09:37:25.284Z,4.30
2023-01-30T09:38:25.247Z,4.20
2023-01-30T09:39:25.260Z,4.50
2023-01-30T09:40:25.285Z,4.40
2023-01-30T09:41:25.253Z,4.10
2023-01-30T09:42:25.236Z,3.90
2023-01-30T09:43:25.232Z,4.30
2023-01-30T09:44:25.189Z,4.20
2023-01-30T09:45:25.202Z,4.70
2023-01-30T09:46:25.223Z,4.10
2023-01-30T09:47:25.190Z,3.90
2023-01-30T09:48:25.169Z,4.50
2023-01-30T09:49:25.155Z,4.30
2023-01-30T09:50:25.124Z,5.30
2023-01-30T09:51:25.137Z,4.90
2023-01-30T09:52:25.104Z,4.20
2023-01-30T09:53:25.125Z,4.10
2023-01-30T09:54:25.113Z,4.00
2023-01-30T09:55:25.093Z,4.10
2023-01-30T09:56:25.056Z,4.00
2023-01-30T09:57:25.082Z,4.30
2023-01-30T09:58:25.063Z,3.90
2023-01-30T09:59:25.053Z,4.00
2023-01-30T10:00:25.044Z,4.10
2023-01-30T10:01:25.033Z,3.70
2023-01-30T10:02:25.002Z,4.30
2023-01-30T10:03:25.063Z,3.90
2023-01-30T10:04:24.999Z,3.60
2023-01-30T10:05:25.004Z,3.70
2023-01-30T10:06:24.983Z,4.20
2023-01-30T10:07:25.033Z,3.50
2023-01-30T10:08:24.942Z,4.10
2023-01-30T10:09:25.449Z,3.50
2023-01-30T10:10:24.929Z,3.80
2023-01-30T10:11:24.932Z,4.20
2023-01-30T10:12:24.924Z,3.90
2023-01-30T10:13:24.906Z,4.50
2023-01-30T10:14:24.886Z,5.50
2023-01-30T10:15:24.881Z,4.50
2023-01-30T10:16:24.852Z,4.00
2023-01-30T10:17:24.859Z,3.50
2023-01-30T10:18:24.866Z,4.00
2023-01-30T10:19:35.208Z,4.70
2023-01-30T10:20:25.250Z,4.00
2023-01-30T10:21:24.818Z,4.20
2023-01-30T10:22:24.785Z,3.70
2023-01-30T10:23:24.798Z,4.10
2023-01-30T10:24:24.806Z,4.20
2023-01-30T10:25:24.773Z,3.60
2023-01-30T10:26:24.771Z,3.80
2023-01-30T10:27:24.751Z,4.00
2023-01-30T10:28:24.722Z,4.00
2023-01-30T10:29:24.732Z,3.80
2023-01-30T10:30:24.902Z,3.70
2023-01-30T10:31:24.802Z,4.60
2023-01-30T10:32:24.675Z,4.00
2023-01-30T10:33:24.705Z,4.00
2023-01-30T10:34:24.658Z,3.60
2023-01-30T10:35:26.191Z,4.00
2023-01-30T10:36:24.657Z,3.70
2023-01-30T10:37:24.645Z,3.50
2023-01-30T10:38:24.611Z,4.10
2023-01-30T10:39:24.640Z,4.20
2023-01-30T10:40:24.590Z,3.50
2023-01-30T10:41:24.641Z,3.80
2023-01-30T10:42:24.595Z,3.80
2023-01-30T10:43:24.583Z,3.40
2023-01-30T10:44:24.555Z,3.90
2023-01-30T10:45:24.573Z,4.10
2023-01-30T10:46:24.542Z,3.70
2023-01-30T10:47:26.455Z,3.80
2023-01-30T10:48:31.358Z,4.10
2023-01-30T10:49:24.524Z,3.80
2023-01-30T10:50:24.487Z,3.60
2023-01-30T10:51:24.502Z,4.00
2023-01-30T10:52:24.517Z,3.80
2023-01-30T10:53:24.484Z,4.50
2023-01-30T10:54:24.467Z,4.40
2023-01-30T10:55:36.286Z,4.60
2023-01-30T10:56:24.433Z,3.40
2023-01-30T10:57:24.448Z,3.60
2023-01-30T10:58:24.402Z,3.80
2023-01-30T10:59:24.435Z,4.20
2023-01-30T11:00:24.477Z,3.80
2023-01-30T11:01:24.415Z,3.70
2023-01-30T11:02:24.437Z,3.50
2023-01-30T11:03:24.346Z,4.00
2023-01-30T11:04:24.358Z,4.00
2023-01-30T11:05:24.323Z,3.50
2023-01-30T11:06:24.367Z,4.20
2023-01-30T11:07:24.315Z,4.10
2023-01-30T11:08:24.317Z,4.00
2023-01-30T11:09:24.723Z,3.90
2023-01-30T11:10:24.312Z,3.90
2023-01-30T11:11:24.263Z,4.20
2023-01-30T11:12:24.299Z,3.80
2023-01-30T11:13:24.246Z,4.40
2023-01-30T11:14:24.252Z,3.90
2023-01-30T11:15:24.222Z,4.30
2023-01-30T11:16:24.356Z,4.00
2023-01-30T11:17:24.223Z,3.70
2023-01-30T11:19:24.202Z,3.70
2023-01-30T11:20:24.191Z,4.30
2023-01-30T11:21:26.994Z,3.50
2023-01-30T11:22:24.177Z,4.80
2023-01-30T11:23:24.136Z,4.00
2023-01-30T11:24:24.170Z,3.90
2023-01-30T11:25:24.115Z,4.00
2023-01-30T11:26:27.587Z,5.30
2023-01-30T11:27:24.112Z,5.40
2023-01-30T11:28:24.126Z,4.00
2023-01-30T11:29:24.070Z,4.20
2023-01-30T11:30:24.112Z,3.70
2023-01-30T11:31:39.992Z,4.20
2023-01-30T11:32:24.095Z,3.70
2023-01-30T11:33:24.025Z,3.90
2023-01-30T11:34:24.059Z,4.10
2023-01-30T11:35:24.003Z,3.60
2023-01-30T11:36:24.271Z,3.60
2023-01-30T11:37:23.989Z,4.00
2023-01-30T11:38:24.010Z,4.10
2023-01-30T11:39:23.965Z,3.80
2023-01-30T11:40:24.032Z,4.30
2023-01-30T11:41:23.947Z,4.40
2023-01-30T11:42:24.003Z,3.90
2023-01-30T11:43:23.927Z,4.20
2023-01-30T11:44:23.937Z,4.00
2023-01-30T11:45:23.905Z,4.00
2023-01-30T11:46:23.972Z,4.00
2023-01-30T11:47:23.881Z,3.80
2023-01-30T11:48:33.910Z,3.70
2023-01-30T11:49:45.506Z,3.50
2023-01-30T11:50:25.864Z,3.80
2023-01-30T11:51:23.851Z,3.70
2023-01-30T11:52:23.849Z,4.20
2023-01-30T11:53:23.818Z,4.30
2023-01-30T11:54:23.934Z,4.50
2023-01-30T11:55:23.811Z,3.90
2023-01-30T11:56:23.816Z,4.20
2023-01-30T11:57:23.776Z,3.60
2023-01-30T11:58:23.788Z,3.30
2023-01-30T11:59:23.784Z,3.50
2023-01-30T12:00:23.838Z,3.40
2023-01-30T12:01:23.734Z,3.70
2023-01-30T12:02:23.875Z,3.30
2023-01-30T12:03:23.756Z,3.60
2023-01-30T12:04:23.734Z,3.60
2023-01-30T12:05:23.728Z,3.50
2023-01-30T12:06:23.730Z,3.10
2023-01-30T12:07:23.734Z,3.50
2023-01-30T12:08:40.282Z,3.80
2023-01-30T12:09:23.649Z,3.80
2023-01-30T12:10:23.659Z,3.70
2023-01-30T12:11:23.630Z,3.60
2023-01-30T12:12:23.665Z,4.20
2023-01-30T12:13:23.603Z,3.60
2023-01-30T12:14:23.616Z,3.30
2023-01-30T12:15:23.583Z,3.50
2023-01-30T12:16:23.699Z,3.90
2023-01-30T12:17:23.566Z,3.30
2023-01-30T12:18:23.595Z,3.90
2023-01-30T12:19:23.547Z,3.50
2023-01-30T12:20:23.559Z,3.60
2023-01-30T12:21:23.527Z,3.30
2023-01-30T12:22:23.542Z,3.80
2023-01-30T12:23:23.499Z,3.60
2023-01-30T12:24:23.539Z,3.50
2023-01-30T12:25:23.487Z,3.50
2023-01-30T12:26:23.540Z,3.10
2023-01-30T12:27:23.455Z,3.30
2023-01-30T12:28:23.470Z,3.60
2023-01-30T12:29:23.449Z,3.40
2023-01-30T12:30:23.482Z,3.40
2023-01-30T12:31:23.465Z,3.80
2023-01-30T12:32:23.425Z,3.40
2023-01-30T12:33:23.389Z,3.20
2023-01-30T12:34:27.065Z,3.60
2023-01-30T12:35:23.384Z,3.70
2023-01-30T12:36:23.481Z,4.30
2023-01-30T12:37:23.356Z,4.60
2023-01-30T12:38:23.363Z,3.80
2023-01-30T12:39:23.338Z,3.60
2023-01-30T12:40:23.344Z,3.40
2023-01-30T12:41:23.311Z,3.50
2023-01-30T12:42:25.641Z,3.80
2023-01-30T12:43:23.296Z,3.40
2023-01-30T12:44:23.298Z,3.50
2023-01-30T12:45:23.271Z,3.50
2023-01-30T12:46:23.343Z,3.30
2023-01-30T12:47:23.252Z,3.10
2023-01-30T12:48:23.296Z,3.50
2023-01-30T12:49:23.228Z,2.90
2023-01-30T12:50:23.237Z,3.00
2023-01-30T12:51:23.203Z,3.00
2023-01-30T12:52:23.219Z,3.40
2023-01-30T12:53:23.193Z,3.50
2023-01-30T12:54:23.215Z,3.80
2023-01-30T12:55:23.200Z,3.10
2023-01-30T12:56:23.183Z,3.10
2023-01-30T12:57:23.136Z,3.50
2023-01-30T12:58:23.152Z,3.50
2023-01-30T12:59:23.117Z,3.10
2023-01-30T13:00:23.144Z,3.50
2023-01-30T13:01:23.170Z,3.80
2023-01-30T13:02:24.832Z,4.00